Time;durP1;ratioP1;P1;durP2;ratioP2;P2;SDS_P1;SDS_P2;PMS_P1;PMS_P2;Temp;Humidity;BMP_temperature;BMP_pressure;BME280_temperature;BME280_humidity;BME280_pressure;Samples;Min_cycle;Max_cycle;Signal;HPM_P1;HPM_P2
2021/09/25 00:01:32;;;;;;;12.63;8.13;;;17.50;99.90;;;;;;5035247;28;20413;-81
2021/09/25 00:03:58;;;;;;;12.83;7.10;;;17.50;99.90;;;;;;5035722;28;20401;-80
2021/09/25 00:06:24;;;;;;;9.97;6.63;;;17.50;99.90;;;;;;5036439;28;20208;-80
2021/09/25 00:08:49;;;;;;;11.87;7.50;;;17.50;99.90;;;;;;5036723;28;20445;-80
2021/09/25 00:11:18;;;;;;;11.43;7.27;;;17.50;99.90;;;;;;5035793;28;20169;-80
2021/09/25 00:13:43;;;;;;;12.90;7.90;;;17.50;99.90;;;;;;5034361;28;20193;-80
2021/09/25 00:16:11;;;;;;;10.60;7.03;;;17.50;99.90;;;;;;5040826;28;20438;-80
2021/09/25 00:18:37;;;;;;;9.37;6.63;;;17.50;99.90;;;;;;5040523;28;20213;-82
2021/09/25 00:21:03;;;;;;;11.27;6.50;;;17.50;99.90;;;;;;5027256;28;20421;-80
2021/09/25 00:23:29;;;;;;;10.80;6.60;;;17.50;99.90;;;;;;5021291;28;20409;-80
2021/09/25 00:25:55;;;;;;;10.70;6.70;;;17.50;99.90;;;;;;5019601;28;20437;-79
2021/09/25 00:28:21;;;;;;;12.23;7.07;;;17.50;99.90;;;;;;5021704;28;20542;-80
2021/09/25 00:30:49;;;;;;;10.17;6.73;;;17.60;99.90;;;;;;5020642;28;20414;-81
2021/09/25 00:33:14;;;;;;;10.47;6.90;;;17.50;99.90;;;;;;5020752;28;20182;-80
2021/09/25 00:35:40;;;;;;;9.43;7.00;;;17.60;99.90;;;;;;5022112;28;21015;-80
2021/09/25 00:38:05;;;;;;;10.10;6.80;;;17.60;99.90;;;;;;5019427;28;20237;-81
2021/09/25 00:40:31;;;;;;;11.70;7.43;;;17.60;99.90;;;;;;5020503;28;20182;-80
2021/09/25 00:42:56;;;;;;;13.70;6.53;;;17.60;99.90;;;;;;5019436;28;20189;-80
2021/09/25 00:45:23;;;;;;;9.70;7.20;;;17.60;99.90;;;;;;5018872;28;20262;-81
2021/09/25 00:47:49;;;;;;;14.23;7.60;;;17.60;99.90;;;;;;5002499;28;20560;-80
2021/09/25 00:50:15;;;;;;;10.40;7.27;;;17.60;99.90;;;;;;5019558;28;20420;-80
2021/09/25 00:52:40;;;;;;;14.03;7.77;;;17.60;99.90;;;;;;5019326;28;20481;-80
2021/09/25 00:55:07;;;;;;;11.20;7.47;;;17.60;99.90;;;;;;5023458;28;20204;-81
2021/09/25 00:57:34;;;;;;;9.57;7.00;;;17.60;99.90;;;;;;5022557;28;20215;-80
2021/09/25 01:00:04;;;;;;;11.07;7.10;;;17.60;99.90;;;;;;5020344;28;20805;-80
2021/09/25 01:02:30;;;;;;;14.50;7.90;;;17.60;99.90;;;;;;5021547;28;20430;-81
2021/09/25 01:04:56;;;;;;;8.97;6.60;;;17.60;99.90;;;;;;5023659;28;20446;-81
2021/09/25 01:07:22;;;;;;;12.50;6.90;;;17.60;99.90;;;;;;5025238;28;20240;-81
2021/09/25 01:10:18;;;;;;;11.30;7.80;;;17.60;99.90;;;;;;5029296;28;20172;-80
2021/09/25 01:12:45;;;;;;;11.70;6.83;;;17.60;99.90;;;;;;5020882;28;20421;-81
2021/09/25 01:15:11;;;;;;;12.27;7.93;;;17.60;99.90;;;;;;5021910;28;20429;-81
2021/09/25 01:17:37;;;;;;;9.27;6.90;;;17.60;99.90;;;;;;5022173;28;20468;-81
2021/09/25 01:20:04;;;;;;;11.80;7.50;;;17.60;99.90;;;;;;5022281;28;20516;-81
2021/09/25 01:22:30;;;;;;;12.50;7.20;;;17.70;99.90;;;;;;5023012;28;20410;-81
2021/09/25 01:24:56;;;;;;;11.03;7.70;;;17.70;99.90;;;;;;5022452;28;20424;-81
2021/09/25 01:27:21;;;;;;;12.00;8.47;;;17.70;99.90;;;;;;5022669;28;20176;-81
2021/09/25 01:29:47;;;;;;;9.53;6.37;;;17.60;99.90;;;;;;5021786;28;20184;-81
2021/09/25 01:32:14;;;;;;;11.27;7.37;;;17.70;99.90;;;;;;5022437;28;20479;-81
2021/09/25 01:34:40;;;;;;;9.83;7.70;;;17.70;99.90;;;;;;5019858;28;20429;-81
2021/09/25 01:37:06;;;;;;;10.20;7.60;;;17.70;99.90;;;;;;5021233;28;20506;-81
2021/09/25 01:39:32;;;;;;;11.40;7.50;;;17.60;99.90;;;;;;5019861;28;20415;-81
2021/09/25 01:42:00;;;;;;;10.07;6.87;;;17.70;99.90;;;;;;5023280;28;20419;-82
2021/09/25 01:44:32;;;;;;;10.63;7.70;;;17.70;99.90;;;;;;5019182;28;20722;-80
2021/09/25 01:46:59;;;;;;;12.10;7.83;;;17.70;99.90;;;;;;5027343;28;20445;-81
2021/09/25 01:49:25;;;;;;;11.37;6.83;;;17.70;99.90;;;;;;5031994;28;20425;-81
2021/09/25 01:51:52;;;;;;;10.47;7.53;;;17.70;99.90;;;;;;5023037;28;20430;-81
2021/09/25 01:54:18;;;;;;;9.67;6.40;;;17.70;99.90;;;;;;5021194;28;20518;-81
2021/09/25 01:56:44;;;;;;;11.73;7.70;;;17.70;99.90;;;;;;5019648;28;20497;-81
2021/09/25 01:59:12;;;;;;;10.47;6.43;;;17.70;99.90;;;;;;5021833;28;20458;-81
2021/09/25 02:01:38;;;;;;;11.67;7.10;;;17.70;99.90;;;;;;5020417;28;20412;-82
2021/09/25 02:04:04;;;;;;;10.73;7.13;;;17.70;99.90;;;;;;5019808;28;20407;-81
2021/09/25 02:06:30;;;;;;;8.43;7.03;;;17.70;99.90;;;;;;5019676;28;20508;-81
2021/09/25 02:08:56;;;;;;;9.13;7.20;;;17.70;99.90;;;;;;5019794;28;20491;-81
2021/09/25 02:11:22;;;;;;;11.23;7.57;;;17.70;99.90;;;;;;5020234;28;20210;-81
2021/09/25 02:13:48;;;;;;;12.07;6.60;;;17.70;99.90;;;;;;5019100;28;20404;-81
2021/09/25 02:16:14;;;;;;;8.60;6.87;;;17.70;99.90;;;;;;5019631;28;20525;-81
2021/09/25 02:18:40;;;;;;;9.63;7.07;;;17.70;99.90;;;;;;5020065;28;20203;-82
2021/09/25 02:21:05;;;;;;;9.40;5.90;;;17.70;99.90;;;;;;5020057;28;20179;-81
2021/09/25 02:23:32;;;;;;;12.27;8.43;;;17.70;99.90;;;;;;5019631;28;20175;-81
2021/09/25 02:26:02;;;;;;;8.67;6.83;;;17.70;99.90;;;;;;5020462;28;20207;-81
2021/09/25 02:28:31;;;;;;;10.47;6.87;;;17.70;99.90;;;;;;5019933;28;20927;-81
2021/09/25 02:30:58;;;;;;;9.47;7.37;;;17.70;99.90;;;;;;5018263;28;20418;-82
2021/09/25 02:33:23;;;;;;;8.87;6.40;;;17.80;99.90;;;;;;5022000;28;20425;-81
2021/09/25 02:35:49;;;;;;;9.30;6.87;;;17.80;99.90;;;;;;5020151;28;20954;-81
2021/09/25 02:38:16;;;;;;;11.83;6.63;;;17.70;99.90;;;;;;5018819;28;20219;-81
2021/09/25 02:40:42;;;;;;;12.57;7.73;;;17.70;99.90;;;;;;5018399;28;20473;-81
2021/09/25 02:43:08;;;;;;;10.53;7.30;;;17.80;99.90;;;;;;5018688;28;20462;-82
2021/09/25 02:45:34;;;;;;;11.50;7.03;;;17.80;99.90;;;;;;5018396;28;20439;-82
2021/09/25 02:48:01;;;;;;;10.70;6.73;;;17.80;99.90;;;;;;5020789;28;20183;-83
2021/09/25 02:50:26;;;;;;;11.77;7.30;;;17.80;99.90;;;;;;5030253;28;20407;-81
2021/09/25 02:52:52;;;;;;;8.97;6.53;;;17.80;99.90;;;;;;5032536;28;20418;-81
2021/09/25 02:55:18;;;;;;;7.23;5.50;;;17.80;99.90;;;;;;5026630;28;20199;-81
2021/09/25 02:57:44;;;;;;;8.97;6.33;;;17.70;99.90;;;;;;5029061;28;20643;-81
2021/09/25 03:00:13;;;;;;;9.27;7.57;;;17.70;99.90;;;;;;5032224;28;20427;-81
2021/09/25 03:02:39;;;;;;;9.70;7.00;;;17.70;99.90;;;;;;5032893;28;20231;-81
2021/09/25 03:05:06;;;;;;;11.13;6.60;;;17.70;99.90;;;;;;5036854;28;20458;-81
2021/09/25 03:07:31;;;;;;;11.10;7.53;;;17.80;99.90;;;;;;5028417;28;20203;-81
2021/09/25 03:09:57;;;;;;;9.80;7.00;;;17.80;99.90;;;;;;5018137;28;20971;-81
2021/09/25 03:12:22;;;;;;;9.20;6.87;;;17.70;99.90;;;;;;5019333;28;20207;-81
2021/09/25 03:14:48;;;;;;;9.87;6.33;;;17.70;99.90;;;;;;5019818;28;20196;-81
2021/09/25 03:17:14;;;;;;;8.53;6.37;;;17.70;99.90;;;;;;5018400;28;20235;-81
2021/09/25 03:19:41;;;;;;;8.30;5.10;;;17.70;99.90;;;;;;5019554;28;20173;-81
2021/09/25 03:22:09;;;;;;;9.53;6.93;;;17.70;99.90;;;;;;5019833;28;20182;-81
2021/09/25 03:24:36;;;;;;;8.17;6.23;;;17.70;99.90;;;;;;5018867;28;20418;-80
2021/09/25 03:27:01;;;;;;;8.13;6.67;;;17.60;99.90;;;;;;5001845;28;20451;-81
2021/09/25 03:29:27;;;;;;;8.97;6.93;;;17.60;99.90;;;;;;5019465;28;20451;-80
2021/09/25 03:31:52;;;;;;;9.67;6.80;;;17.70;99.90;;;;;;5018352;28;20187;-81
2021/09/25 03:34:18;;;;;;;10.63;7.33;;;17.70;99.90;;;;;;5017802;28;20534;-81
2021/09/25 03:36:44;;;;;;;9.23;6.50;;;17.70;99.90;;;;;;5016497;28;20203;-81
2021/09/25 03:39:10;;;;;;;6.87;4.97;;;17.60;99.90;;;;;;5025588;28;20184;-81
2021/09/25 03:41:35;;;;;;;9.97;6.50;;;17.70;99.90;;;;;;5020036;28;20183;-81
2021/09/25 03:44:02;;;;;;;6.23;5.33;;;17.60;99.90;;;;;;5018143;28;20426;-81
2021/09/25 03:46:28;;;;;;;11.43;6.60;;;17.70;99.90;;;;;;5020336;28;20675;-81
2021/09/25 03:48:54;;;;;;;9.93;6.43;;;17.70;99.90;;;;;;5018738;28;20427;-81
2021/09/25 03:51:20;;;;;;;8.50;6.23;;;17.70;99.90;;;;;;5023596;28;20161;-81
2021/09/25 03:53:45;;;;;;;9.27;5.77;;;17.70;99.90;;;;;;5021926;28;20497;-81
2021/09/25 03:56:11;;;;;;;7.07;5.63;;;17.70;99.90;;;;;;5021299;28;20210;-81
2021/09/25 03:58:39;;;;;;;9.80;7.27;;;17.70;99.90;;;;;;5019585;28;20258;-81
2021/09/25 04:01:06;;;;;;;8.17;5.60;;;17.70;99.90;;;;;;5021656;28;20424;-81
2021/09/25 04:03:31;;;;;;;6.30;5.53;;;17.70;99.90;;;;;;5022359;28;20519;-81
2021/09/25 04:05:58;;;;;;;8.50;6.00;;;17.70;99.90;;;;;;5020939;28;20472;-80
2021/09/25 04:08:27;;;;;;;9.23;7.07;;;17.70;99.90;;;;;;5022271;28;20185;-81
2021/09/25 04:10:52;;;;;;;9.70;6.00;;;17.60;99.90;;;;;;5021826;28;20465;-81
2021/09/25 04:13:18;;;;;;;9.53;6.63;;;17.70;99.90;;;;;;5021579;28;20419;-82
2021/09/25 04:15:43;;;;;;;9.77;5.97;;;17.60;99.90;;;;;;5024137;28;20219;-81
2021/09/25 04:18:12;;;;;;;8.70;5.60;;;17.60;99.90;;;;;;5023375;28;20205;-81
2021/09/25 04:20:38;;;;;;;8.27;5.20;;;17.60;99.90;;;;;;5023582;28;20181;-81
2021/09/25 04:23:04;;;;;;;9.20;6.30;;;17.60;99.90;;;;;;5025674;28;20476;-80
2021/09/25 04:25:33;;;;;;;9.43;7.33;;;17.60;99.90;;;;;;5028330;28;20482;-81
2021/09/25 04:28:09;;;;;;;11.17;8.40;;;17.60;99.90;;;;;;5031472;28;20419;-81
2021/09/25 04:30:39;;;;;;;7.23;5.30;;;17.60;99.90;;;;;;5033116;28;20417;-81
2021/09/25 04:33:07;;;;;;;10.07;6.97;;;17.60;99.90;;;;;;5033364;28;20441;-81
2021/09/25 04:35:33;;;;;;;11.80;7.00;;;17.60;99.90;;;;;;5036832;28;20434;-81
2021/09/25 04:37:59;;;;;;;12.23;7.97;;;17.50;99.90;;;;;;5035544;28;21033;-80
2021/09/25 04:40:25;;;;;;;12.80;9.07;;;17.50;99.90;;;;;;5030937;28;20173;-82
2021/09/25 04:42:54;;;;;;;11.23;6.90;;;17.40;99.90;;;;;;5020789;28;20500;-82
2021/09/25 04:45:20;;;;;;;11.67;6.63;;;17.40;99.90;;;;;;5017785;28;20270;-82
2021/09/25 04:47:45;;;;;;;9.27;6.90;;;17.40;99.90;;;;;;5018515;28;20461;-81
2021/09/25 04:50:13;;;;;;;13.10;7.50;;;17.50;99.90;;;;;;5018291;28;20825;-82
2021/09/25 04:52:39;;;;;;;14.20;7.87;;;17.50;99.90;;;;;;5023787;28;20418;-81
2021/09/25 04:55:05;;;;;;;14.47;9.00;;;17.40;99.90;;;;;;5017407;28;20439;-82
2021/09/25 04:57:31;;;;;;;13.10;8.70;;;17.40;99.90;;;;;;5017838;28;20518;-82
2021/09/25 04:59:57;;;;;;;11.37;7.43;;;17.30;99.90;;;;;;5017409;28;20446;-82
2021/09/25 05:02:25;;;;;;;12.87;8.07;;;17.40;99.90;;;;;;5020661;28;20410;-81
2021/09/25 05:04:51;;;;;;;12.63;8.63;;;17.20;99.90;;;;;;5021174;28;20326;-82
2021/09/25 05:07:16;;;;;;;12.57;7.90;;;17.30;99.90;;;;;;5022372;28;20448;-82
2021/09/25 05:09:42;;;;;;;13.10;8.00;;;17.20;99.90;;;;;;5024655;28;20183;-82
2021/09/25 05:12:08;;;;;;;8.33;6.20;;;17.20;99.90;;;;;;5024381;28;20181;-82
2021/09/25 05:14:34;;;;;;;9.93;7.27;;;17.10;99.90;;;;;;5024339;28;20216;-81
2021/09/25 05:17:01;;;;;;;12.50;6.77;;;17.10;99.90;;;;;;5025758;28;20476;-82
2021/09/25 05:19:26;;;;;;;9.50;7.07;;;17.10;99.90;;;;;;5025477;28;20825;-82
2021/09/25 05:21:52;;;;;;;12.80;6.97;;;17.10;99.90;;;;;;5024826;28;20447;-82
2021/09/25 05:24:19;;;;;;;11.60;7.80;;;17.10;99.90;;;;;;5023978;28;20663;-82
2021/09/25 05:26:48;;;;;;;11.07;6.73;;;17.10;99.90;;;;;;5021588;28;20606;-82
2021/09/25 05:29:13;;;;;;;11.07;7.10;;;17.10;99.90;;;;;;5023917;28;20416;-81
2021/09/25 05:31:39;;;;;;;10.97;7.70;;;17.10;99.90;;;;;;5021333;28;20419;-82
2021/09/25 05:34:05;;;;;;;10.17;7.00;;;17.10;99.90;;;;;;5019415;28;20563;-81
2021/09/25 05:36:30;;;;;;;11.27;6.80;;;17.10;99.90;;;;;;5018043;28;20190;-81
2021/09/25 05:38:56;;;;;;;8.17;6.00;;;17.20;99.90;;;;;;5018633;28;20170;-80
2021/09/25 05:41:22;;;;;;;11.20;6.63;;;17.20;99.90;;;;;;5018566;28;20181;-82
2021/09/25 05:43:51;;;;;;;10.63;6.67;;;17.20;99.90;;;;;;5016714;28;20183;-81
2021/09/25 05:46:17;;;;;;;11.90;7.13;;;17.20;99.90;;;;;;5017212;28;20280;-81
2021/09/25 05:48:43;;;;;;;12.20;6.23;;;17.20;99.90;;;;;;5018272;28;20480;-81
2021/09/25 05:51:10;;;;;;;11.63;7.23;;;17.20;99.90;;;;;;5018922;28;20425;-81
2021/09/25 05:53:36;;;;;;;9.60;6.90;;;17.20;99.90;;;;;;5018504;28;20265;-80
2021/09/25 05:56:02;;;;;;;9.60;6.87;;;17.20;99.90;;;;;;5017327;28;20454;-80
2021/09/25 05:58:28;;;;;;;11.30;6.17;;;17.20;99.90;;;;;;5018347;28;20215;-81
2021/09/25 06:00:53;;;;;;;11.73;7.13;;;17.20;99.90;;;;;;5016923;28;20498;-81
2021/09/25 06:03:19;;;;;;;11.30;6.50;;;17.20;99.90;;;;;;5017281;28;20181;-82
2021/09/25 06:05:44;;;;;;;8.83;6.90;;;17.20;99.90;;;;;;5000242;28;20214;-82
2021/09/25 06:08:10;;;;;;;10.80;6.77;;;17.30;99.90;;;;;;5018937;28;20177;-82
2021/09/25 06:10:35;;;;;;;12.30;7.03;;;17.30;99.90;;;;;;5018416;28;20249;-81
2021/09/25 06:13:03;;;;;;;9.60;6.50;;;17.30;99.90;;;;;;5018069;28;20212;-82
2021/09/25 06:15:29;;;;;;;11.90;7.20;;;17.30;99.90;;;;;;5016825;28;20238;-81
2021/09/25 06:17:55;;;;;;;11.03;6.53;;;17.40;99.90;;;;;;5017998;28;20854;-82
2021/09/25 06:20:21;;;;;;;10.47;6.80;;;17.40;99.90;;;;;;5016780;28;20187;-80
2021/09/25 06:22:46;;;;;;;10.00;6.57;;;17.40;99.90;;;;;;5016447;28;20421;-80
2021/09/25 06:25:12;;;;;;;10.27;6.60;;;17.40;99.90;;;;;;4999543;28;20794;-79
2021/09/25 06:27:38;;;;;;;10.37;7.03;;;17.40;99.90;;;;;;5016155;28;20674;-79
2021/09/25 06:30:07;;;;;;;11.10;7.03;;;17.50;99.90;;;;;;5016439;28;20176;-80
2021/09/25 06:32:32;;;;;;;8.43;5.83;;;17.50;99.90;;;;;;5018346;28;20601;-80
2021/09/25 06:34:57;;;;;;;12.33;7.10;;;17.50;99.90;;;;;;4999236;28;20835;-80
2021/09/25 06:37:23;;;;;;;11.57;7.37;;;17.50;99.90;;;;;;5019280;28;20542;-80
2021/09/25 06:39:49;;;;;;;8.10;6.13;;;17.50;99.90;;;;;;5036923;28;20199;-80
2021/09/25 06:42:14;;;;;;;10.53;6.13;;;17.50;99.90;;;;;;5037529;28;20175;-79
2021/09/25 06:44:40;;;;;;;10.67;6.57;;;17.50;99.90;;;;;;5037379;28;20191;-80
2021/09/25 06:47:05;;;;;;;9.30;5.73;;;17.60;99.90;;;;;;5022518;28;20251;-81
2021/09/25 06:49:31;;;;;;;8.77;6.73;;;17.60;99.90;;;;;;5036946;28;20195;-81
2021/09/25 06:51:57;;;;;;;10.07;6.93;;;17.50;99.90;;;;;;5021390;28;20277;-82
2021/09/25 06:54:26;;;;;;;14.50;8.00;;;17.60;99.90;;;;;;5034266;28;20188;-83
2021/09/25 06:56:52;;;;;;;9.50;7.63;;;17.60;99.90;;;;;;5033396;28;20202;-81
2021/09/25 06:59:18;;;;;;;10.70;6.63;;;17.60;99.90;;;;;;5035640;28;20427;-81
2021/09/25 07:01:43;;;;;;;11.83;7.20;;;17.60;99.90;;;;;;5038962;28;20426;-82
2021/09/25 07:04:09;;;;;;;10.60;6.63;;;17.70;99.90;;;;;;5038678;28;20187;-81
2021/09/25 07:06:39;;;;;;;10.77;7.03;;;17.70;99.90;;;;;;5038740;28;20251;-79
2021/09/25 07:09:05;;;;;;;9.00;6.60;;;17.70;99.90;;;;;;5038959;28;20270;-80
2021/09/25 07:11:30;;;;;;;9.80;7.43;;;17.70;99.90;;;;;;5038516;28;20456;-79
2021/09/25 07:13:56;;;;;;;11.03;7.73;;;17.70;99.90;;;;;;5038353;28;20764;-80
2021/09/25 07:16:21;;;;;;;11.60;7.10;;;17.70;99.90;;;;;;5031517;28;20208;-80
2021/09/25 07:18:47;;;;;;;10.23;7.43;;;17.80;99.90;;;;;;5019188;28;20265;-80
2021/09/25 07:21:12;;;;;;;13.47;8.30;;;17.90;99.90;;;;;;5026147;28;20642;-80
2021/09/25 07:23:38;;;;;;;10.43;6.73;;;17.90;99.90;;;;;;5038766;28;20256;-80
2021/09/25 07:26:04;;;;;;;11.07;7.00;;;17.90;99.90;;;;;;5016815;28;20683;-80
2021/09/25 07:28:30;;;;;;;9.80;7.80;;;17.90;99.90;;;;;;5018050;28;20197;-80
2021/09/25 07:30:55;;;;;;;12.33;8.30;;;17.90;99.90;;;;;;5022002;28;20195;-81
2021/09/25 07:33:21;;;;;;;13.03;8.00;;;17.90;99.90;;;;;;5042634;28;20183;-81
2021/09/25 07:35:47;;;;;;;10.13;7.60;;;17.90;99.90;;;;;;5039353;28;20704;-81
2021/09/25 07:38:13;;;;;;;10.03;6.73;;;18.10;99.90;;;;;;5040079;28;20215;-80
2021/09/25 07:40:38;;;;;;;10.03;6.43;;;18.20;99.90;;;;;;5037249;28;20432;-81
2021/09/25 07:43:05;;;;;;;8.80;6.77;;;18.30;99.90;;;;;;5030313;28;20180;-81
2021/09/25 07:45:31;;;;;;;12.00;7.03;;;18.30;99.90;;;;;;5040009;28;20191;-81
2021/09/25 07:47:57;;;;;;;12.10;6.83;;;18.30;99.90;;;;;;5037860;28;20420;-80
2021/09/25 07:50:23;;;;;;;10.80;7.40;;;18.50;99.90;;;;;;5038399;28;20428;-81
2021/09/25 07:52:55;;;;;;;11.90;7.40;;;18.50;99.90;;;;;;5036967;28;20424;-80
2021/09/25 07:55:22;;;;;;;12.73;7.80;;;18.60;99.90;;;;;;5037114;28;20459;-79
2021/09/25 07:57:48;;;;;;;10.90;6.97;;;18.60;99.90;;;;;;5019316;28;20463;-79
2021/09/25 08:00:16;;;;;;;10.13;6.47;;;18.50;99.90;;;;;;5037011;28;20427;-79
2021/09/25 08:02:42;;;;;;;11.17;7.60;;;18.50;99.90;;;;;;5037697;28;20239;-82
2021/09/25 08:05:10;;;;;;;11.73;7.23;;;18.40;99.90;;;;;;5039060;28;20448;-80
2021/09/25 08:07:36;;;;;;;9.50;7.40;;;18.40;99.90;;;;;;5040893;28;20442;-81
2021/09/25 08:10:02;;;;;;;12.50;7.60;;;18.50;99.90;;;;;;5040071;28;20459;-79
2021/09/25 08:12:27;;;;;;;11.73;7.50;;;18.50;99.90;;;;;;5041505;28;20181;-80
2021/09/25 08:14:53;;;;;;;11.00;7.87;;;18.60;99.90;;;;;;5045904;28;20412;-81
2021/09/25 08:17:19;;;;;;;11.60;7.23;;;18.60;99.90;;;;;;5040073;28;20208;-81
2021/09/25 08:19:46;;;;;;;11.20;7.80;;;18.50;99.90;;;;;;5039568;28;20185;-81
2021/09/25 08:22:12;;;;;;;11.00;7.10;;;18.60;99.90;;;;;;5020234;28;20228;-81
2021/09/25 08:24:38;;;;;;;13.03;8.37;;;18.70;99.90;;;;;;5022450;28;20425;-82
2021/09/25 08:27:03;;;;;;;11.07;7.50;;;18.70;99.90;;;;;;5022749;28;20531;-80
2021/09/25 08:29:29;;;;;;;11.60;7.87;;;18.80;99.90;;;;;;5039261;28;20666;-80
2021/09/25 08:31:54;;;;;;;12.30;8.10;;;18.80;99.90;;;;;;5041176;28;20193;-82
2021/09/25 08:34:20;;;;;;;20.13;7.97;;;18.80;99.90;;;;;;5040974;28;20552;-80
2021/09/25 08:36:46;;;;;;;10.00;8.13;;;19.00;99.90;;;;;;5043778;28;20205;-80
2021/09/25 08:39:12;;;;;;;15.50;8.47;;;19.00;99.90;;;;;;5043323;28;20680;-80
2021/09/25 08:41:39;;;;;;;8.00;7.03;;;19.00;99.90;;;;;;5043777;28;20841;-80
2021/09/25 08:44:05;;;;;;;8.80;7.07;;;18.90;99.90;;;;;;5040895;28;20440;-80
2021/09/25 08:46:35;;;;;;;14.13;8.73;;;18.90;99.90;;;;;;5026279;28;20429;-81
2021/09/25 08:49:01;;;;;;;12.23;7.93;;;18.80;99.90;;;;;;5045585;28;20433;-80
2021/09/25 08:51:26;;;;;;;10.40;7.40;;;18.80;99.90;;;;;;5045710;28;20419;-82
2021/09/25 08:53:52;;;;;;;11.97;8.10;;;18.70;99.90;;;;;;5045251;28;20988;-80
2021/09/25 08:56:17;;;;;;;11.07;8.10;;;18.60;99.90;;;;;;5045725;28;20346;-81
2021/09/25 08:58:45;;;;;;;12.27;7.53;;;18.60;99.90;;;;;;5045467;28;20285;-80
2021/09/25 09:01:20;;;;;;;11.40;7.80;;;18.60;99.90;;;;;;5047936;28;20181;-80
2021/09/25 09:03:48;;;;;;;10.30;7.80;;;18.60;99.90;;;;;;5047486;28;20451;-81
2021/09/25 09:06:20;;;;;;;10.73;7.83;;;18.70;99.90;;;;;;5044415;28;20460;-81
2021/09/25 09:08:51;;;;;;;11.13;7.80;;;18.70;99.90;;;;;;5049730;28;20424;-80
2021/09/25 09:11:19;;;;;;;11.30;9.00;;;18.70;99.90;;;;;;5051432;28;20412;-80
2021/09/25 09:13:48;;;;;;;19.00;9.40;;;18.70;99.90;;;;;;5042547;28;20431;-81
2021/09/25 09:16:14;;;;;;;9.63;7.93;;;18.80;99.90;;;;;;5050452;28;20463;-81
2021/09/25 09:18:46;;;;;;;13.43;9.17;;;18.80;99.90;;;;;;5055704;28;20446;-80
2021/09/25 09:21:15;;;;;;;14.93;9.63;;;18.70;99.90;;;;;;5056475;28;20407;-82
2021/09/25 09:23:50;;;;;;;12.90;8.37;;;18.70;99.90;;;;;;5053865;28;20439;-81
2021/09/25 09:26:18;;;;;;;13.47;8.80;;;18.60;99.90;;;;;;5049682;28;20415;-81
2021/09/25 09:28:46;;;;;;;10.77;8.77;;;18.60;99.90;;;;;;5026799;28;20837;-81
2021/09/25 09:31:12;;;;;;;9.93;7.77;;;18.70;99.90;;;;;;5026987;28;20482;-81
2021/09/25 09:33:43;;;;;;;12.37;8.83;;;18.80;99.90;;;;;;5024582;28;20413;-81
2021/09/25 09:36:24;;;;;;;11.90;9.07;;;18.80;99.90;;;;;;5029984;28;20455;-82
2021/09/25 09:39:02;;;;;;;9.10;8.17;;;18.90;99.90;;;;;;5032317;28;20503;-82
2021/09/25 09:41:39;;;;;;;13.13;9.60;;;18.80;99.90;;;;;;5028004;28;20397;-82
2021/09/25 09:44:15;;;;;;;12.93;9.27;;;18.70;99.90;;;;;;5025053;28;20417;-80
2021/09/25 09:46:43;;;;;;;11.90;8.00;;;18.70;99.90;;;;;;5023653;28;20428;-81
2021/09/25 09:49:17;;;;;;;11.33;8.33;;;18.70;99.90;;;;;;5024358;28;20481;-81
2021/09/25 09:51:49;;;;;;;11.53;8.80;;;18.70;99.90;;;;;;5025337;28;20409;-81
2021/09/25 09:54:17;;;;;;;11.70;8.90;;;18.70;99.90;;;;;;5023333;28;20416;-81
2021/09/25 09:56:43;;;;;;;14.00;9.13;;;18.70;99.90;;;;;;5023653;28;20424;-81
2021/09/25 09:59:10;;;;;;;13.60;9.13;;;18.60;99.90;;;;;;5022326;28;20854;-81
2021/09/25 10:01:37;;;;;;;13.60;10.00;;;18.60;99.90;;;;;;5022734;28;20425;-81
2021/09/25 10:04:03;;;;;;;12.30;9.40;;;18.60;99.90;;;;;;5024404;28;20441;-81
2021/09/25 10:06:29;;;;;;;12.47;9.10;;;18.70;99.90;;;;;;5021524;28;20484;-81
2021/09/25 10:08:55;;;;;;;16.17;9.27;;;18.70;99.90;;;;;;5022803;28;20615;-82
2021/09/25 10:11:24;;;;;;;14.37;9.43;;;18.80;99.90;;;;;;5022715;28;20454;-81
2021/09/25 10:13:53;;;;;;;10.53;8.50;;;18.80;99.90;;;;;;5022355;28;20421;-81
2021/09/25 10:16:19;;;;;;;13.23;9.33;;;18.70;99.90;;;;;;5027168;28;20510;-80
2021/09/25 10:18:45;;;;;;;12.03;9.60;;;18.80;99.90;;;;;;5013712;28;20886;-81
2021/09/25 10:21:12;;;;;;;12.67;8.80;;;18.80;99.90;;;;;;5021756;28;20198;-81
2021/09/25 10:23:51;;;;;;;14.80;10.40;;;18.90;99.90;;;;;;5049510;28;20247;-80
2021/09/25 10:26:18;;;;;;;12.10;8.90;;;18.90;99.90;;;;;;5047163;28;20502;-82
2021/09/25 10:28:53;;;;;;;14.03;10.60;;;18.80;99.90;;;;;;5038716;28;20424;-81
2021/09/25 10:31:19;;;;;;;14.57;10.60;;;18.80;99.90;;;;;;5035070;28;20902;-82
2021/09/25 10:34:12;;;;;;;11.43;9.70;;;18.90;99.90;;;;;;5029618;28;20417;-81
2021/09/25 10:36:52;;;;;;;11.60;10.20;;;19.00;99.90;;;;;;5040054;28;20201;-81
2021/09/25 10:39:35;;;;;;;17.03;11.33;;;19.10;99.90;;;;;;5056643;28;20416;-81
2021/09/25 10:42:13;;;;;;;10.87;8.87;;;19.10;99.90;;;;;;5042735;28;20419;-82
2021/09/25 10:44:46;;;;;;;10.63;8.47;;;19.30;99.90;;;;;;5033211;28;20444;-82
2021/09/25 10:47:21;;;;;;;13.70;9.57;;;19.40;99.90;;;;;;5019805;28;20425;-82
2021/09/25 10:49:48;;;;;;;12.97;9.87;;;19.40;99.90;;;;;;5030075;28;20980;-81
2021/09/25 10:52:17;;;;;;;11.90;8.90;;;19.50;99.90;;;;;;5038840;28;20447;-82
2021/09/25 10:55:06;;;;;;;12.43;9.07;;;19.60;99.90;;;;;;5039826;28;20927;-82
2021/09/25 10:57:32;;;;;;;11.80;9.40;;;19.60;99.90;;;;;;5037980;28;20520;-81
2021/09/25 11:00:21;;;;;;;10.57;9.30;;;19.90;99.90;;;;;;5034065;28;20423;-82
2021/09/25 11:02:47;;;;;;;10.33;7.80;;;19.90;99.90;;;;;;5037608;28;20235;-81
2021/09/25 11:05:18;;;;;;;12.17;8.90;;;19.80;99.90;;;;;;5039715;28;20459;-80
2021/09/25 11:07:58;;;;;;;13.00;8.70;;;19.90;99.90;;;;;;5038099;28;20469;-81
2021/09/25 11:10:57;;;;;;;10.90;7.97;;;19.80;99.90;;;;;;5038477;28;20763;-81
2021/09/25 11:14:01;;;;;;;11.00;7.73;;;20.10;99.90;;;;;;5037925;28;20454;-81
2021/09/25 11:16:49;;;;;;;9.33;7.00;;;20.10;99.90;;;;;;5037043;28;20509;-81
2021/09/25 11:19:21;;;;;;;10.07;7.80;;;20.00;99.90;;;;;;5038680;28;20439;-82
2021/09/25 11:21:56;;;;;;;9.57;7.70;;;19.90;99.90;;;;;;5038677;28;20440;-80
2021/09/25 11:24:22;;;;;;;8.77;6.83;;;19.80;99.90;;;;;;5036345;28;20420;-82
2021/09/25 11:26:48;;;;;;;8.90;7.13;;;20.10;99.90;;;;;;5036483;28;20468;-80
2021/09/25 11:29:13;;;;;;;11.00;7.30;;;20.50;99.90;;;;;;5035772;28;20428;-81
2021/09/25 11:31:39;;;;;;;11.20;8.10;;;20.60;99.90;;;;;;5036712;28;20173;-81
2021/09/25 11:34:26;;;;;;;9.30;7.00;;;20.80;99.90;;;;;;5034458;28;20275;-81
2021/09/25 11:36:57;;;;;;;10.57;8.17;;;20.80;99.90;;;;;;5030902;28;20276;-81
2021/09/25 11:39:23;;;;;;;7.70;6.17;;;20.60;99.90;;;;;;5021471;28;20430;-81
2021/09/25 11:42:09;;;;;;;9.20;6.73;;;20.50;99.90;;;;;;5032361;28;21038;-81
2021/09/25 11:44:45;;;;;;;6.60;5.90;;;20.40;99.90;;;;;;5015699;28;20409;-81
2021/09/25 11:47:23;;;;;;;8.07;6.43;;;20.30;99.90;;;;;;5017918;28;20482;-81
2021/09/25 11:49:49;;;;;;;8.13;6.30;;;20.30;99.90;;;;;;5015640;28;20403;-79
2021/09/25 11:52:15;;;;;;;7.47;6.27;;;20.30;99.90;;;;;;5029208;28;20450;-80
2021/09/25 11:54:41;;;;;;;6.97;6.27;;;20.40;99.90;;;;;;5034201;28;20196;-80
2021/09/25 11:57:19;;;;;;;8.80;7.27;;;20.40;99.90;;;;;;5033925;28;20455;-80
2021/09/25 11:59:46;;;;;;;7.70;6.90;;;20.40;99.90;;;;;;5035009;28;20799;-80
2021/09/25 12:02:57;;;;;;;8.20;6.70;;;20.50;99.90;;;;;;5035285;28;20502;-80
2021/09/25 12:05:26;;;;;;;7.73;6.23;;;20.50;99.90;;;;;;5032857;28;20450;-80
2021/09/25 12:07:53;;;;;;;7.10;6.40;;;20.50;99.90;;;;;;5034907;28;20415;-81
2021/09/25 12:10:29;;;;;;;6.53;5.90;;;20.60;99.90;;;;;;5031100;28;20649;-80
2021/09/25 12:13:11;;;;;;;6.47;5.77;;;20.60;99.90;;;;;;5039096;28;20421;-80
2021/09/25 12:15:42;;;;;;;7.67;5.93;;;20.60;99.90;;;;;;5024061;28;20828;-80
2021/09/25 12:18:17;;;;;;;6.67;5.23;;;20.60;99.90;;;;;;5007217;28;20456;-80
2021/09/25 12:20:55;;;;;;;7.87;5.87;;;20.50;99.90;;;;;;5010597;28;20939;-76
2021/09/25 12:23:34;;;;;;;7.43;6.10;;;20.60;99.90;;;;;;5033652;28;20434;-81
2021/09/25 12:26:00;;;;;;;6.17;5.57;;;20.80;99.90;;;;;;5039701;28;20470;-80
2021/09/25 12:28:36;;;;;;;7.70;6.30;;;20.90;99.90;;;;;;5022434;28;20523;-80
2021/09/25 12:31:09;;;;;;;5.87;4.63;;;20.90;99.90;;;;;;5040704;28;20423;-79
2021/09/25 12:33:56;;;;;;;8.77;5.97;;;20.90;99.90;;;;;;5040233;28;20988;-79
2021/09/25 12:36:26;;;;;;;5.80;4.60;;;20.80;99.90;;;;;;5034863;28;20439;-79
2021/09/25 12:38:53;;;;;;;5.90;4.90;;;20.80;99.90;;;;;;5022309;28;20484;-78
2021/09/25 12:41:26;;;;;;;5.83;4.83;;;20.70;99.90;;;;;;5039214;28;20427;-79
2021/09/25 12:43:58;;;;;;;7.60;5.30;;;20.60;99.90;;;;;;5036577;28;20426;-79
2021/09/25 12:46:33;;;;;;;6.33;5.10;;;20.40;99.90;;;;;;5038802;28;20444;-79